createdAt,value
2015-03-04T13:49:40.413Z,101377
2015-03-04T13:49:50.794Z,101365
2015-03-04T13:50:01.993Z,101370
2015-03-04T13:50:13.055Z,101372
2015-03-04T13:50:23.444Z,101366
2015-03-04T13:50:33.851Z,101378
2015-03-04T13:50:44.241Z,101371
2015-03-04T13:50:54.669Z,101371
2015-03-04T13:51:05.148Z,101377
2015-03-04T13:51:16.284Z,101374
2015-03-04T13:51:26.728Z,101383
2015-03-04T13:51:37.100Z,101360
2015-03-04T13:51:47.927Z,101369
2015-03-04T13:51:58.490Z,101369
2015-03-04T13:52:08.949Z,101386
2015-03-04T13:52:20.111Z,101368
2015-03-04T13:52:30.603Z,101368
2015-03-04T13:52:41.074Z,101374
2015-03-04T13:52:52.113Z,101373
2015-03-04T13:53:02.549Z,101367
2015-03-04T13:53:13.421Z,101364
2015-03-04T13:53:23.887Z,101370
2015-03-04T13:53:34.370Z,101367
2015-03-04T13:53:44.790Z,101367
2015-03-04T13:53:55.216Z,101370
2015-03-04T13:54:05.658Z,101370
2015-03-04T13:54:16.071Z,101367
2015-03-04T13:54:26.491Z,101370
2015-03-04T13:54:36.949Z,101370
2015-03-04T13:54:47.692Z,101370
2015-03-04T13:54:58.136Z,101369
2015-03-04T13:55:08.604Z,101383
2015-03-04T13:55:19.079Z,101374
2015-03-04T13:55:29.549Z,101368
2015-03-04T13:55:40.030Z,101368
2015-03-04T13:55:50.641Z,101371
2015-03-04T13:56:01.108Z,101374
2015-03-04T13:56:11.557Z,101370
2015-03-04T13:56:22.979Z,101388
2015-03-04T13:56:33.963Z,101370
2015-03-04T13:56:44.409Z,101376
2015-03-04T13:56:54.832Z,101373
2015-03-04T13:57:05.261Z,101373
2015-03-04T13:57:15.679Z,101364
2015-03-04T13:57:26.174Z,101358
2015-03-04T13:57:36.598Z,101373
2015-03-04T13:57:47.134Z,101367
2015-03-04T13:58:00.340Z,101379
2015-03-04T13:58:12.941Z,101370
2015-03-04T13:58:23.393Z,101367
2015-03-04T13:58:33.865Z,101387
2015-03-04T13:58:44.318Z,101361
2015-03-04T13:58:54.758Z,101375
2015-03-04T13:59:05.248Z,101378
2015-03-04T13:59:15.719Z,101370
2015-03-04T13:59:26.194Z,101372
2015-03-04T13:59:36.687Z,101375
2015-03-04T13:59:47.154Z,101367
2015-03-04T13:59:57.639Z,101372
2015-03-04T14:00:08.154Z,101375
2015-03-04T14:00:18.623Z,101372
2015-03-04T14:00:29.062Z,101367
2015-03-04T14:00:39.558Z,101367
2015-03-04T14:00:50.061Z,101372
2015-03-04T14:01:00.545Z,101369
2015-03-04T14:01:10.986Z,101378
2015-03-04T14:01:21.444Z,101366
2015-03-04T14:01:31.888Z,101369
2015-03-04T14:01:42.383Z,101372
2015-03-04T14:01:52.878Z,101369
2015-03-04T14:02:03.373Z,101372
2015-03-04T14:02:13.873Z,101364
2015-03-04T14:02:24.315Z,101372
2015-03-04T14:02:34.784Z,101378
2015-03-04T14:02:45.437Z,101369
2015-03-04T14:02:55.928Z,101372
2015-03-04T14:03:06.376Z,101369
2015-03-04T14:03:16.818Z,101364
2015-03-04T14:03:27.288Z,101369
2015-03-04T14:03:37.739Z,101375
2015-03-04T14:03:48.209Z,101366
2015-03-04T14:03:58.651Z,101372
2015-03-04T14:04:09.120Z,101369
2015-03-04T14:04:19.566Z,101358
2015-03-04T14:04:30.010Z,101366
2015-03-04T14:04:40.457Z,101378
2015-03-04T14:04:51.443Z,101372
2015-03-04T14:05:01.913Z,101381
2015-03-04T14:05:12.442Z,101375
2015-03-04T14:05:22.910Z,101375
2015-03-04T14:05:33.424Z,101375
2015-03-04T14:05:43.893Z,101378
2015-03-04T14:05:54.311Z,101366
2015-03-04T14:06:04.729Z,101369
2015-03-04T14:06:15.199Z,101369
2015-03-04T14:06:25.645Z,101375
2015-03-04T14:06:36.040Z,101372
2015-03-04T14:06:46.492Z,101372
2015-03-04T14:06:56.994Z,101372
2015-03-04T14:07:07.500Z,101375
2015-03-04T14:07:17.986Z,101366
2015-03-04T14:07:28.472Z,101378
2015-03-04T14:07:38.971Z,101372
2015-03-04T14:07:49.450Z,101375
2015-03-04T14:08:00.552Z,101375
2015-03-04T14:08:11.118Z,101375
2015-03-04T14:08:21.567Z,101384
2015-03-04T14:08:32.034Z,101378
2015-03-04T14:08:42.475Z,101378
2015-03-04T14:08:52.929Z,101372
2015-03-04T14:09:03.365Z,101381
2015-03-04T14:09:13.911Z,101372
2015-03-04T14:09:24.384Z,101384
2015-03-04T14:09:34.879Z,101375
2015-03-04T14:09:45.298Z,101372
2015-03-04T14:09:55.721Z,101375
2015-03-04T14:10:06.171Z,101378
2015-03-04T14:10:16.623Z,101381
2015-03-04T14:10:27.080Z,101369
2015-03-04T14:10:37.514Z,101369
2015-03-04T14:10:47.945Z,101372
2015-03-04T14:10:58.361Z,101366
2015-03-04T14:11:08.877Z,101369
2015-03-04T14:11:19.304Z,101369
2015-03-04T14:11:29.770Z,101369
2015-03-04T14:11:40.191Z,101378
2015-03-04T14:11:50.659Z,101375
2015-03-04T14:12:01.109Z,101363
2015-03-04T14:12:11.526Z,101369
2015-03-04T14:12:21.971Z,101369
2015-03-04T14:12:32.389Z,101375
2015-03-04T14:12:42.896Z,101372
2015-03-04T14:12:53.315Z,101375
2015-03-04T14:13:03.810Z,101375
2015-03-04T14:13:14.269Z,101381
2015-03-04T14:13:24.716Z,101369
2015-03-04T14:13:35.163Z,101375
2015-03-04T14:13:45.553Z,101383
2015-03-04T14:13:55.999Z,101375
2015-03-04T14:14:06.468Z,101372
2015-03-04T14:14:16.939Z,101372
2015-03-04T14:14:27.746Z,101371
2015-03-04T14:14:38.180Z,101371
2015-03-04T14:14:48.632Z,101377
2015-03-04T14:14:59.051Z,101377
2015-03-04T14:15:09.495Z,101374
2015-03-04T14:15:19.967Z,101371
2015-03-04T14:15:30.464Z,101374
2015-03-04T14:15:40.910Z,101377
2015-03-04T14:15:51.309Z,101389
2015-03-04T14:16:01.741Z,101380
2015-03-04T14:16:12.188Z,101377
2015-03-04T14:16:22.612Z,101377
2015-03-04T14:16:33.107Z,101386
2015-03-04T14:16:43.617Z,101386
2015-03-04T14:16:54.074Z,101386
2015-03-04T14:17:04.519Z,101377
2015-03-04T14:17:14.978Z,101386
2015-03-04T14:17:25.406Z,101383
2015-03-04T14:17:35.851Z,101392
2015-03-04T14:17:46.297Z,101397
2015-03-04T14:17:56.730Z,101391
2015-03-04T14:18:07.167Z,101389
2015-03-04T14:18:17.605Z,101394
2015-03-04T14:18:28.023Z,101397
2015-03-04T14:18:38.439Z,101388
2015-03-04T14:18:48.891Z,101400
2015-03-04T14:18:59.334Z,101397
2015-03-04T14:19:09.777Z,101385
2015-03-04T14:19:20.221Z,101380
2015-03-04T14:19:30.667Z,101385
2015-03-04T14:19:41.084Z,101403
2015-03-04T14:19:51.531Z,101397
2015-03-04T14:20:01.950Z,101388
2015-03-04T14:20:12.374Z,101394
2015-03-04T14:20:22.818Z,101397
2015-03-04T14:20:33.240Z,101397
2015-03-04T14:20:43.658Z,101385
2015-03-04T14:20:54.100Z,101391
2015-03-04T14:21:04.567Z,101394
2015-03-04T14:21:14.989Z,101388
2015-03-04T14:21:25.404Z,101385
2015-03-04T14:21:35.850Z,101382
2015-03-04T14:21:46.271Z,101397
2015-03-04T14:21:56.690Z,101406
2015-03-04T14:22:07.112Z,101389
2015-03-04T14:22:17.556Z,101389
2015-03-04T14:22:27.997Z,101391
2015-03-04T14:22:38.425Z,101386
2015-03-04T14:22:48.865Z,101394
2015-03-04T14:22:59.331Z,101386
2015-03-04T14:23:09.778Z,101391
2015-03-04T14:23:20.195Z,101388
2015-03-04T14:23:30.639Z,101383
2015-03-04T14:23:41.039Z,101394
2015-03-04T14:23:51.457Z,101383
2015-03-04T14:24:01.996Z,101388
2015-03-04T14:24:12.522Z,101385
2015-03-04T14:24:22.941Z,101385
2015-03-04T14:24:33.755Z,101385
2015-03-04T14:24:44.253Z,101380
2015-03-04T14:24:54.689Z,101385
2015-03-04T14:25:05.111Z,101385
2015-03-04T14:25:15.552Z,101386
2015-03-04T14:25:26.008Z,101380
2015-03-04T14:25:36.467Z,101383
2015-03-04T14:25:46.884Z,101389
2015-03-04T14:25:57.354Z,101386
2015-03-04T14:26:07.799Z,101389
2015-03-04T14:26:18.244Z,101391
2015-03-04T14:26:28.660Z,101380
2015-03-04T14:26:39.086Z,101380
2015-03-04T14:26:49.637Z,101377
2015-03-04T14:27:00.047Z,101380
2015-03-04T14:27:10.475Z,101377
2015-03-04T14:27:20.890Z,101377
2015-03-04T14:27:31.333Z,101380
2015-03-04T14:27:41.778Z,101371
2015-03-04T14:27:52.313Z,101374
2015-03-04T14:28:02.912Z,101368
2015-03-04T14:28:13.347Z,101377
2015-03-04T14:28:23.890Z,101377
2015-03-04T14:28:34.358Z,101374
2015-03-04T14:28:45.417Z,101365
2015-03-04T14:28:55.838Z,101374
2015-03-04T14:29:06.283Z,101373
2015-03-04T14:29:16.707Z,101371
2015-03-04T14:29:27.144Z,101379
2015-03-04T14:29:37.564Z,101373
2015-03-04T14:29:47.984Z,101376
2015-03-04T14:29:58.405Z,101376
2015-03-04T14:30:08.874Z,101370
2015-03-04T14:30:19.402Z,101379
2015-03-04T14:30:29.875Z,101376
2015-03-04T14:30:40.362Z,101376
2015-03-04T14:30:50.788Z,101379
2015-03-04T14:31:01.455Z,101376
2015-03-04T14:31:12.184Z,101385
2015-03-04T14:31:22.650Z,101382
2015-03-04T14:31:33.047Z,101370
2015-03-04T14:31:43.490Z,101379
2015-03-04T14:31:53.911Z,101382
2015-03-04T14:32:04.362Z,101376
2015-03-04T14:32:14.826Z,101370
2015-03-04T14:32:25.274Z,101379
2015-03-04T14:32:35.767Z,101376
2015-03-04T14:32:46.213Z,101373
2015-03-04T14:32:56.664Z,101368
2015-03-04T14:33:07.153Z,101376
2015-03-04T14:33:17.571Z,101382
2015-03-04T14:33:27.990Z,101382
2015-03-04T14:33:38.410Z,101379
2015-03-04T14:33:48.864Z,101379
2015-03-04T14:33:59.298Z,101373
2015-03-04T14:34:09.721Z,101379
2015-03-04T14:34:20.137Z,101379
2015-03-04T14:34:30.554Z,101382
2015-03-04T14:34:40.969Z,101379
2015-03-04T14:34:55.650Z,101379
2015-03-04T14:35:06.094Z,101373
2015-03-04T14:35:16.511Z,101391
2015-03-04T14:35:26.955Z,101379
2015-03-04T14:35:37.427Z,101391
2015-03-04T14:35:47.851Z,101391
2015-03-04T14:35:58.262Z,101394
2015-03-04T14:36:08.730Z,101399
2015-03-04T14:36:19.149Z,101393
2015-03-04T14:36:29.597Z,101396
2015-03-04T14:36:40.017Z,101402
2015-03-04T14:36:50.468Z,101408
2015-03-04T14:37:00.882Z,101417
2015-03-04T14:37:11.328Z,101423
2015-03-04T14:37:21.748Z,101411
2015-03-04T14:37:32.185Z,101426
2015-03-04T14:37:42.635Z,101425
2015-03-04T14:37:53.161Z,101422
2015-03-04T14:38:03.610Z,101425
2015-03-04T14:38:14.052Z,101417
2015-03-04T14:38:24.515Z,101422
2015-03-04T14:38:34.895Z,101420
2015-03-04T14:38:45.972Z,101423
2015-03-04T14:38:56.437Z,101425
2015-03-04T14:39:06.970Z,101434
2015-03-04T14:39:17.453Z,101428
2015-03-04T14:39:27.926Z,101425
2015-03-04T14:39:38.369Z,101422
2015-03-04T14:39:48.764Z,101428
2015-03-04T14:39:59.185Z,101431
2015-03-04T14:40:09.969Z,101431
2015-03-04T14:40:20.407Z,101426
2015-03-04T14:40:30.860Z,101423
2015-03-04T14:40:41.298Z,101414
2015-03-04T14:40:51.769Z,101408
2015-03-04T14:41:02.216Z,101408
2015-03-04T14:41:12.683Z,101400
2015-03-04T14:41:23.129Z,101406
2015-03-04T14:41:33.567Z,101411
2015-03-04T14:41:44.014Z,101409
2015-03-04T14:41:54.459Z,101406
2015-03-04T14:42:04.902Z,101403
2015-03-04T14:42:15.298Z,101400
2015-03-04T14:42:25.719Z,101400
2015-03-04T14:42:36.135Z,101400
2015-03-04T14:42:46.565Z,101409
2015-03-04T14:42:56.985Z,101409
2015-03-04T14:43:07.451Z,101403
2015-03-04T14:43:17.923Z,101412
2015-03-04T14:43:28.369Z,101403
2015-03-04T14:43:38.779Z,101394
2015-03-04T14:43:49.227Z,101400
2015-03-04T14:43:59.643Z,101397
2015-03-04T14:44:10.087Z,101406
2015-03-04T14:44:20.535Z,101400
2015-03-04T14:44:30.980Z,101394
2015-03-04T14:44:41.396Z,101400
2015-03-04T14:44:51.789Z,101403
2015-03-04T14:45:02.210Z,101406
2015-03-04T14:45:12.706Z,101406
2015-03-04T14:45:23.149Z,101406
2015-03-04T14:45:34.052Z,101406
2015-03-04T14:46:39.697Z,101409
2015-03-04T14:46:50.154Z,101406
2015-03-04T14:47:00.641Z,101397
2015-03-04T14:47:11.081Z,101400
2015-03-04T14:47:21.523Z,101397
2015-03-04T14:47:31.969Z,101409
2015-03-04T14:47:42.416Z,101409
2015-03-04T14:47:52.863Z,101409
2015-03-04T14:48:03.338Z,101401
2015-03-04T14:48:13.805Z,101401
2015-03-04T14:48:24.283Z,101406
2015-03-04T14:48:34.688Z,101389
2015-03-04T14:48:45.801Z,101409
2015-03-04T14:48:56.227Z,101403
2015-03-04T14:49:06.641Z,101401
2015-03-04T14:49:17.056Z,101389
2015-03-04T14:49:27.474Z,101395
2015-03-04T14:49:37.918Z,101398
2015-03-04T14:49:48.343Z,101407
2015-03-04T14:49:58.790Z,101398
2015-03-04T14:50:09.211Z,101404
2015-03-04T14:50:19.659Z,101404
2015-03-04T14:50:30.122Z,101407
2015-03-04T14:50:40.565Z,101401
2015-03-04T14:50:51.089Z,101401
2015-03-04T14:51:01.511Z,101404
2015-03-04T14:51:11.927Z,101401
2015-03-04T14:51:22.357Z,101401
2015-03-04T14:51:32.765Z,101401
2015-03-04T14:51:43.184Z,101407
2015-03-04T14:51:53.599Z,101404
2015-03-04T14:52:04.044Z,101407
2015-03-04T14:52:14.517Z,101416
2015-03-04T14:52:24.962Z,101413
2015-03-04T14:52:35.535Z,101404
2015-03-04T14:52:45.984Z,101407
2015-03-04T14:52:56.398Z,101407
2015-03-04T14:53:06.818Z,101410
2015-03-04T14:53:17.238Z,101418
2015-03-04T14:53:28.294Z,101404
2015-03-04T14:53:38.738Z,101398
2015-03-04T14:53:49.232Z,101415
2015-03-04T14:53:59.681Z,101409
2015-03-04T14:54:10.097Z,101412
2015-03-04T14:54:20.538Z,101409
2015-03-04T14:54:30.959Z,101409
2015-03-04T14:54:41.383Z,101418
2015-03-04T14:54:51.806Z,101409
2015-03-04T14:55:02.253Z,101418
2015-03-04T14:55:12.692Z,101415
2015-03-04T14:55:23.189Z,101418
2015-03-04T14:55:33.605Z,101418
2015-03-04T14:55:44.026Z,101418
2015-03-04T14:55:54.475Z,101423
2015-03-04T14:56:04.892Z,101415
2015-03-04T14:56:15.331Z,101421
2015-03-04T14:56:25.776Z,101424
2015-03-04T14:56:36.222Z,101412
2015-03-04T14:56:46.672Z,101418
2015-03-04T14:56:57.120Z,101412
2015-03-04T14:57:08.161Z,101421
2015-03-04T14:57:18.625Z,101420
2015-03-04T14:57:29.090Z,101423
2015-03-04T14:57:39.533Z,101420
2015-03-04T14:57:49.980Z,101420
2015-03-04T14:58:00.425Z,101417
2015-03-04T14:58:10.944Z,101409
2015-03-04T14:58:22.080Z,101429
2015-03-04T14:58:32.522Z,101417
2015-03-04T14:58:43.042Z,101417
2015-03-04T14:58:53.491Z,101417
2015-03-04T14:59:04.269Z,101423
2015-03-04T14:59:14.714Z,101426
2015-03-04T14:59:25.156Z,101429
2015-03-04T14:59:35.604Z,101414
2015-03-04T14:59:46.102Z,101417
2015-03-04T14:59:56.573Z,101415
2015-03-04T15:00:07.038Z,101418
2015-03-04T15:00:17.485Z,101426
2015-03-04T15:00:27.953Z,101421
2015-03-04T15:00:38.473Z,101429
2015-03-04T15:00:48.956Z,101427
2015-03-04T15:00:59.432Z,101415
2015-03-04T15:01:09.921Z,101418
2015-03-04T15:01:20.398Z,101423
2015-03-04T15:01:30.863Z,101418
2015-03-04T15:01:41.381Z,101421
2015-03-04T15:01:51.852Z,101424
2015-03-04T15:02:02.299Z,101424
2015-03-04T15:02:12.790Z,101418
2015-03-04T15:02:23.264Z,101421
2015-03-04T15:02:33.711Z,101424
2015-03-04T15:02:44.194Z,101421
2015-03-04T15:02:54.636Z,101415
2015-03-04T15:03:05.085Z,101412
2015-03-04T15:03:15.503Z,101427
2015-03-04T15:03:25.953Z,101412
2015-03-04T15:03:36.423Z,101415
2015-03-04T15:03:46.829Z,101421
2015-03-04T15:03:57.278Z,101415
2015-03-04T15:04:07.744Z,101421
2015-03-04T15:04:18.211Z,101418
2015-03-04T15:04:28.665Z,101418
2015-03-04T15:04:39.161Z,101415
2015-03-04T15:04:50.109Z,101412
2015-03-04T15:05:00.602Z,101415
2015-03-04T15:05:10.999Z,101413
2015-03-04T15:05:21.415Z,101413
2015-03-04T15:05:31.832Z,101415
2015-03-04T15:05:42.268Z,101407
2015-03-04T15:05:53.093Z,101409
2015-03-04T15:06:03.514Z,101418
2015-03-04T15:06:13.956Z,101415
2015-03-04T15:06:24.349Z,101409
2015-03-04T15:06:34.817Z,101412
2015-03-04T15:06:45.781Z,101418
2015-03-04T15:06:56.228Z,101415
2015-03-04T15:07:06.730Z,101406
2015-03-04T15:07:17.257Z,101406
2015-03-04T15:07:27.770Z,101406
2015-03-04T15:07:38.224Z,101420
2015-03-04T15:07:48.663Z,101415
2015-03-04T15:07:59.108Z,101409
2015-03-04T15:08:09.528Z,101414
2015-03-04T15:08:19.968Z,101397
2015-03-04T15:08:30.390Z,101414
2015-03-04T15:08:40.807Z,101402
2015-03-04T15:08:52.056Z,101400
2015-03-04T15:09:02.495Z,101405
2015-03-04T15:09:12.935Z,101408
2015-03-04T15:09:23.418Z,101408
2015-03-04T15:09:33.862Z,101411
2015-03-04T15:09:44.319Z,101411
2015-03-04T15:09:54.788Z,101403
2015-03-04T15:10:05.227Z,101411
2015-03-04T15:10:15.597Z,101420
2015-03-04T15:10:26.041Z,101411
2015-03-04T15:10:36.483Z,101405
2015-03-04T15:10:46.981Z,101411
2015-03-04T15:10:57.424Z,101411
2015-03-04T15:11:07.876Z,101420
2015-03-04T15:11:18.294Z,101420
2015-03-04T15:11:29.073Z,101420
2015-03-04T15:11:39.488Z,101414
2015-03-04T15:11:49.935Z,101411
2015-03-04T15:12:00.403Z,101414
2015-03-04T15:12:10.854Z,101408
2015-03-04T15:12:21.728Z,101414
2015-03-04T15:12:32.173Z,101405
2015-03-04T15:12:42.617Z,101411
2015-03-04T15:12:53.076Z,101408
2015-03-04T15:13:03.532Z,101411
2015-03-04T15:13:14.081Z,101420
2015-03-04T15:13:24.681Z,101420
2015-03-04T15:13:35.927Z,101414
2015-03-04T15:13:46.365Z,101402
2015-03-04T15:13:56.784Z,101402
2015-03-04T15:14:07.225Z,101408
2015-03-04T15:14:17.642Z,101414
2015-03-04T15:14:28.062Z,101408
2015-03-04T15:14:38.482Z,101405
2015-03-04T15:14:48.981Z,101408
2015-03-04T15:14:59.402Z,101408
2015-03-04T15:15:09.849Z,101414
2015-03-04T15:15:20.337Z,101408
2015-03-04T15:15:30.779Z,101417
2015-03-04T15:15:41.202Z,101417
2015-03-04T15:15:51.651Z,101414
2015-03-04T15:16:02.069Z,101408
2015-03-04T15:16:12.487Z,101417
2015-03-04T15:16:22.931Z,101414
2015-03-04T15:16:33.351Z,101417
2015-03-04T15:16:43.778Z,101414
2015-03-04T15:16:54.190Z,101411
2015-03-04T15:17:04.606Z,101420
2015-03-04T15:17:15.078Z,101411
2015-03-04T15:17:25.525Z,101405
2015-03-04T15:17:35.948Z,101405
2015-03-04T15:17:46.445Z,101408
2015-03-04T15:17:56.908Z,101414
2015-03-04T15:18:07.355Z,101417
2015-03-04T15:18:17.780Z,101411
2015-03-04T15:18:28.195Z,101417
2015-03-04T15:18:38.638Z,101405
2015-03-04T15:18:49.081Z,101411
2015-03-04T15:18:59.501Z,101420
2015-03-04T15:19:09.961Z,101420
2015-03-04T15:19:20.470Z,101426
2015-03-04T15:19:30.888Z,101420
2015-03-04T15:19:41.302Z,101420
2015-03-04T15:19:51.723Z,101423
2015-03-04T15:20:02.146Z,101423
2015-03-04T15:20:12.586Z,101420
2015-03-04T15:20:23.012Z,101425
2015-03-04T15:20:33.477Z,101425
2015-03-04T15:20:43.957Z,101414
2015-03-04T15:20:54.370Z,101420
2015-03-04T15:21:04.784Z,101420
2015-03-04T15:21:15.238Z,101420
2015-03-04T15:21:25.698Z,101420
2015-03-04T15:21:36.122Z,101420
2015-03-04T15:21:46.537Z,101405
2015-03-04T15:21:56.960Z,101411
2015-03-04T15:22:07.430Z,101417
2015-03-04T15:22:17.903Z,101405
2015-03-04T15:22:28.364Z,101408
2015-03-04T15:22:38.785Z,101408
2015-03-04T15:22:49.772Z,101408
2015-03-04T15:23:00.225Z,101414
2015-03-04T15:23:10.715Z,101417
2015-03-04T15:23:21.139Z,101408
2015-03-04T15:23:31.577Z,101417
2015-03-04T15:23:42.019Z,101422
2015-03-04T15:23:52.438Z,101408
2015-03-04T15:24:02.862Z,101419
2015-03-04T15:24:13.280Z,101417
2015-03-04T15:24:23.700Z,101428
2015-03-04T15:24:34.119Z,101420
2015-03-04T15:24:44.554Z,101419
2015-03-04T15:24:55.001Z,101425
2015-03-04T15:25:05.426Z,101417
2015-03-04T15:25:15.872Z,101419
2015-03-04T15:25:26.344Z,101428
2015-03-04T15:25:36.784Z,101417
2015-03-04T15:25:47.256Z,101414
2015-03-04T15:25:57.710Z,101408
2015-03-04T15:26:08.099Z,101422
2015-03-04T15:26:18.542Z,101425
2015-03-04T15:26:28.980Z,101416
2015-03-04T15:26:39.530Z,101425
2015-03-04T15:26:49.980Z,101422
2015-03-04T15:27:00.445Z,101422
2015-03-04T15:27:10.893Z,101422
2015-03-04T15:27:21.382Z,101425
2015-03-04T15:27:31.836Z,101419
2015-03-04T15:27:42.306Z,101431
2015-03-04T15:27:52.726Z,101425
2015-03-04T15:28:03.170Z,101428
2015-03-04T15:28:13.615Z,101431
2015-03-04T15:28:24.089Z,101428
2015-03-04T15:28:34.589Z,101431
2015-03-04T15:28:45.129Z,101431
2015-03-04T15:28:55.588Z,101437
2015-03-04T15:29:06.044Z,101437
2015-03-04T15:29:16.507Z,101422
2015-03-04T15:29:26.925Z,101428
2015-03-04T15:29:37.376Z,101437
2015-03-04T15:29:47.791Z,101428
2015-03-04T15:29:58.210Z,101431
2015-03-04T15:30:08.630Z,101422
2015-03-04T15:30:19.048Z,101416
2015-03-04T15:30:29.489Z,101431
2015-03-04T15:30:39.939Z,101431
2015-03-04T15:30:50.393Z,101422
2015-03-04T15:31:00.829Z,101428
2015-03-04T15:31:11.274Z,101431
2015-03-04T15:31:21.697Z,101433
2015-03-04T15:31:32.114Z,101436
2015-03-04T15:31:42.528Z,101436
2015-03-04T15:31:52.948Z,101431
2015-03-04T15:32:03.369Z,101428
2015-03-04T15:32:13.793Z,101433
2015-03-04T15:32:24.242Z,101436
2015-03-04T15:32:34.686Z,101439
2015-03-04T15:32:45.247Z,101436
2015-03-04T15:32:55.669Z,101436
2015-03-04T15:33:06.138Z,101448
2015-03-04T15:33:16.562Z,101439
2015-03-04T15:33:26.988Z,101430
2015-03-04T15:33:37.434Z,101430
2015-03-04T15:33:47.895Z,101433
2015-03-04T16:10:49.841Z,101402
2015-03-04T16:11:00.285Z,101402
2015-03-04T16:11:10.701Z,101408
2015-03-04T16:11:21.121Z,101405
2015-03-04T16:11:31.551Z,101393
2015-03-04T16:11:41.982Z,101399
2015-03-04T16:11:52.480Z,101405
2015-03-04T16:12:02.904Z,101399
2015-03-04T16:12:13.320Z,101396
2015-03-04T16:12:23.744Z,101393
2015-03-04T16:12:34.158Z,101390
2015-03-04T16:12:44.630Z,101390
2015-03-04T16:12:55.081Z,101393
2015-03-04T16:13:05.522Z,101399
2015-03-04T16:13:15.961Z,101399
2015-03-04T16:13:26.408Z,101393
2015-03-04T16:13:36.824Z,101396
2015-03-04T16:13:47.268Z,101390
2015-03-04T16:13:57.797Z,101396
2015-03-04T16:14:08.217Z,101393
2015-03-04T16:14:18.646Z,101390
2015-03-04T16:14:29.079Z,101401
2015-03-04T16:14:39.524Z,101390
2015-03-04T16:14:49.996Z,101390
2015-03-04T16:15:00.478Z,101398
2015-03-04T16:15:10.882Z,101384
2015-03-04T16:15:21.341Z,101395
2015-03-04T16:15:31.773Z,101389
2015-03-04T16:15:42.214Z,101389
2015-03-04T16:15:52.633Z,101395
2015-03-04T16:16:03.105Z,101395
2015-03-04T16:16:13.527Z,101401
2015-03-04T16:16:23.944Z,101395
2015-03-04T16:16:34.362Z,101395
2015-03-04T16:16:44.908Z,101404
2015-03-04T16:16:55.328Z,101401
2015-03-04T16:17:05.750Z,101395
2015-03-04T16:17:16.134Z,101398
2015-03-04T16:17:26.586Z,101392
2015-03-04T16:17:37.035Z,101389
2015-03-04T16:17:47.473Z,101395
2015-03-04T16:17:57.919Z,101395
2015-03-04T16:18:08.365Z,101404
2015-03-04T16:18:18.810Z,101401
2015-03-04T16:18:29.228Z,101392
2015-03-04T16:18:39.579Z,101404
2015-03-04T16:18:50.016Z,101401
2015-03-04T16:19:00.434Z,101401
2015-03-04T16:19:10.857Z,101395
2015-03-04T16:19:21.274Z,101395
2015-03-04T16:19:31.718Z,101395
2015-03-04T16:19:42.139Z,101392
2015-03-04T16:19:52.510Z,101398
2015-03-04T16:20:02.957Z,101386
2015-03-04T16:20:13.401Z,101404
2015-03-04T16:20:23.840Z,101395
2015-03-04T16:20:34.308Z,101404
2015-03-04T16:20:44.784Z,101392
2015-03-04T16:20:55.197Z,101398
2015-03-04T16:21:05.648Z,101386
2015-03-04T16:21:16.145Z,101398
2015-03-04T16:21:26.610Z,101407
2015-03-04T16:21:37.030Z,101392
2015-03-04T16:21:47.448Z,101401
2015-03-04T16:21:57.921Z,101398
2015-03-04T16:22:08.369Z,101398
2015-03-04T16:22:18.808Z,101401
2015-03-04T16:22:29.322Z,101398
2015-03-04T16:22:39.779Z,101401
2015-03-04T16:22:50.246Z,101407
2015-03-04T16:23:00.679Z,101404
2015-03-04T16:23:11.118Z,101404
2015-03-04T16:23:21.528Z,101404
2015-03-04T16:23:31.972Z,101404
2015-03-04T16:23:42.392Z,101404
2015-03-04T16:23:52.820Z,101404
2015-03-04T16:24:03.293Z,101401
2015-03-04T16:24:13.822Z,101395
2015-03-04T16:24:24.558Z,101398
2015-03-04T16:24:35.252Z,101401
2015-03-04T16:24:45.889Z,101401
2015-03-04T16:24:56.328Z,101395
2015-03-04T16:25:06.775Z,101398
2015-03-04T16:25:17.222Z,101395
2015-03-04T16:25:27.637Z,101401
2015-03-04T16:25:38.058Z,101404
2015-03-04T16:25:48.472Z,101404
2015-03-04T16:25:58.890Z,101392
2015-03-04T16:26:09.311Z,101398
2015-03-04T16:26:19.765Z,101401
2015-03-04T16:26:30.209Z,101398
2015-03-04T16:26:40.644Z,101404
2015-03-04T16:26:51.502Z,101392
2015-03-04T16:27:01.943Z,101398
2015-03-04T16:27:12.390Z,101424
2015-03-04T16:27:22.839Z,101389
2015-03-04T16:27:33.282Z,101398
2015-03-04T16:27:43.728Z,101398
2015-03-04T16:27:54.225Z,101415
2015-03-04T16:28:04.642Z,101398
2015-03-04T16:28:15.108Z,101401
2015-03-04T16:28:25.557Z,101401
2015-03-04T16:28:35.974Z,101404
2015-03-04T16:28:46.493Z,101404
2015-03-04T16:28:56.921Z,101398
2015-03-04T16:29:08.022Z,101398
2015-03-04T16:29:18.470Z,101395
2015-03-04T16:29:28.916Z,101398
2015-03-04T16:29:39.360Z,101389
2015-03-04T16:29:49.810Z,101415
2015-03-04T16:30:00.246Z,101398
2015-03-04T16:30:10.691Z,101398
2015-03-04T16:30:21.161Z,101404
2015-03-04T16:30:31.606Z,101395
2015-03-04T16:30:42.116Z,101395
2015-03-04T16:30:52.546Z,101404
2015-03-04T16:31:02.966Z,101401
2015-03-04T16:31:13.389Z,101401
2015-03-04T16:31:23.810Z,101407
2015-03-04T16:31:34.232Z,101389
